sensor_id;sensor_type;location;lat;lon;timestamp;pressure;altitude;pressure_sealevel;temperature;humidity
22440;BME280;11387;51.612;7.210;2022-08-21T00:00:03;100877.66;;;17.40;68.83
22440;BME280;11387;51.612;7.210;2022-08-21T00:02:31;100872.94;;;17.40;68.97
22440;BME280;11387;51.612;7.210;2022-08-21T00:05:01;100864.28;;;17.42;68.76
22440;BME280;11387;51.612;7.210;2022-08-21T00:07:29;100873.47;;;17.34;68.86
22440;BME280;11387;51.612;7.210;2022-08-21T00:09:56;100859.22;;;17.23;69.30
22440;BME280;11387;51.612;7.210;2022-08-21T00:12:24;100853.91;;;17.18;69.76
22440;BME280;11387;51.612;7.210;2022-08-21T00:14:52;100852.56;;;17.03;69.86
22440;BME280;11387;51.612;7.210;2022-08-21T00:17:23;100852.09;;;17.01;69.90
22440;BME280;11387;51.612;7.210;2022-08-21T00:19:51;100851.00;;;16.94;70.32
22440;BME280;11387;51.612;7.210;2022-08-21T00:22:20;100847.13;;;16.86;70.79
22440;BME280;11387;51.612;7.210;2022-08-21T00:24:48;100843.91;;;16.84;70.78
22440;BME280;11387;51.612;7.210;2022-08-21T00:27:15;100842.16;;;16.79;70.80
22440;BME280;11387;51.612;7.210;2022-08-21T00:29:44;100846.59;;;16.72;70.94
22440;BME280;11387;51.612;7.210;2022-08-21T00:32:11;100841.28;;;16.58;71.48
22440;BME280;11387;51.612;7.210;2022-08-21T00:34:39;100834.84;;;16.45;71.91
22440;BME280;11387;51.612;7.210;2022-08-21T00:37:07;100837.63;;;16.45;72.26
22440;BME280;11387;51.612;7.210;2022-08-21T00:39:36;100838.50;;;16.29;72.59
22440;BME280;11387;51.612;7.210;2022-08-21T00:42:04;100841.88;;;16.34;72.58
22440;BME280;11387;51.612;7.210;2022-08-21T00:44:32;100842.25;;;16.24;72.74
22440;BME280;11387;51.612;7.210;2022-08-21T00:46:59;100835.63;;;16.16;73.16
22440;BME280;11387;51.612;7.210;2022-08-21T00:49:27;100848.09;;;16.23;72.89
22440;BME280;11387;51.612;7.210;2022-08-21T00:51:57;100841.44;;;16.24;73.02
22440;BME280;11387;51.612;7.210;2022-08-21T00:54:28;100837.88;;;16.23;72.92
22440;BME280;11387;51.612;7.210;2022-08-21T00:57:01;100849.69;;;16.32;72.88
22440;BME280;11387;51.612;7.210;2022-08-21T00:59:33;100852.28;;;16.37;72.52
22440;BME280;11387;51.612;7.210;2022-08-21T01:02:02;100851.13;;;16.38;72.66
22440;BME280;11387;51.612;7.210;2022-08-21T01:04:30;100840.03;;;16.47;72.10
22440;BME280;11387;51.612;7.210;2022-08-21T01:06:57;100844.09;;;16.49;72.00
22440;BME280;11387;51.612;7.210;2022-08-21T01:09:25;100840.97;;;16.51;72.16
22440;BME280;11387;51.612;7.210;2022-08-21T01:11:53;100834.66;;;16.50;72.18
22440;BME280;11387;51.612;7.210;2022-08-21T01:14:22;100838.56;;;16.49;71.98
22440;BME280;11387;51.612;7.210;2022-08-21T01:16:52;100846.38;;;16.47;72.16
22440;BME280;11387;51.612;7.210;2022-08-21T01:19:20;100854.38;;;16.40;72.40
22440;BME280;11387;51.612;7.210;2022-08-21T01:21:50;100848.06;;;16.31;72.80
22440;BME280;11387;51.612;7.210;2022-08-21T01:24:18;100848.91;;;16.23;73.19
22440;BME280;11387;51.612;7.210;2022-08-21T01:26:46;100843.78;;;16.13;73.41
22440;BME280;11387;51.612;7.210;2022-08-21T01:29:17;100849.94;;;16.10;73.53
22440;BME280;11387;51.612;7.210;2022-08-21T01:31:47;100845.75;;;16.04;73.65
22440;BME280;11387;51.612;7.210;2022-08-21T01:34:15;100850.63;;;15.98;74.06
22440;BME280;11387;51.612;7.210;2022-08-21T01:36:44;100842.06;;;15.82;74.35
22440;BME280;11387;51.612;7.210;2022-08-21T01:39:14;100850.22;;;15.70;74.72
22440;BME280;11387;51.612;7.210;2022-08-21T01:41:42;100850.09;;;15.58;75.26
22440;BME280;11387;51.612;7.210;2022-08-21T01:44:11;100852.84;;;15.58;75.60
22440;BME280;11387;51.612;7.210;2022-08-21T01:46:39;100848.25;;;15.62;75.45
22440;BME280;11387;51.612;7.210;2022-08-21T01:49:07;100849.25;;;15.49;75.87
22440;BME280;11387;51.612;7.210;2022-08-21T01:51:35;100849.25;;;15.49;75.80
22440;BME280;11387;51.612;7.210;2022-08-21T01:54:03;100852.66;;;15.46;75.82
22440;BME280;11387;51.612;7.210;2022-08-21T01:56:37;100847.78;;;15.43;76.23
22440;BME280;11387;51.612;7.210;2022-08-21T01:59:06;100851.84;;;15.37;76.19
22440;BME280;11387;51.612;7.210;2022-08-21T02:01:34;100844.69;;;15.36;76.49
22440;BME280;11387;51.612;7.210;2022-08-21T02:04:02;100845.69;;;15.23;76.85
22440;BME280;11387;51.612;7.210;2022-08-21T02:06:30;100841.16;;;15.18;77.04
22440;BME280;11387;51.612;7.210;2022-08-21T02:08:58;100829.97;;;15.14;77.34
22440;BME280;11387;51.612;7.210;2022-08-21T02:11:26;100833.03;;;15.22;76.94
22440;BME280;11387;51.612;7.210;2022-08-21T02:13:55;100835.97;;;15.16;77.05
22440;BME280;11387;51.612;7.210;2022-08-21T02:16:23;100836.78;;;15.17;76.99
22440;BME280;11387;51.612;7.210;2022-08-21T02:18:51;100836.59;;;15.13;77.32
22440;BME280;11387;51.612;7.210;2022-08-21T02:21:19;100836.44;;;15.10;77.54
22440;BME280;11387;51.612;7.210;2022-08-21T02:23:46;100838.53;;;15.04;77.89
22440;BME280;11387;51.612;7.210;2022-08-21T02:26:14;100831.22;;;15.00;78.08
22440;BME280;11387;51.612;7.210;2022-08-21T02:28:42;100831.09;;;14.96;78.25
22440;BME280;11387;51.612;7.210;2022-08-21T02:31:11;100825.59;;;14.96;78.15
22440;BME280;11387;51.612;7.210;2022-08-21T02:33:39;100832.69;;;14.89;78.30
22440;BME280;11387;51.612;7.210;2022-08-21T02:36:09;100819.56;;;14.86;78.49
22440;BME280;11387;51.612;7.210;2022-08-21T02:38:39;100822.97;;;14.82;78.24
22440;BME280;11387;51.612;7.210;2022-08-21T02:41:19;100825.22;;;14.80;78.41
22440;BME280;11387;51.612;7.210;2022-08-21T02:43:47;100819.06;;;14.75;78.45
22440;BME280;11387;51.612;7.210;2022-08-21T02:46:18;100823.44;;;14.67;78.90
22440;BME280;11387;51.612;7.210;2022-08-21T02:48:46;100826.81;;;14.73;79.15
22440;BME280;11387;51.612;7.210;2022-08-21T02:51:16;100831.84;;;14.71;79.03
22440;BME280;11387;51.612;7.210;2022-08-21T02:53:46;100834.28;;;14.64;79.05
22440;BME280;11387;51.612;7.210;2022-08-21T02:56:17;100832.31;;;14.56;79.34
22440;BME280;11387;51.612;7.210;2022-08-21T02:58:51;100835.06;;;14.56;79.65
22440;BME280;11387;51.612;7.210;2022-08-21T03:01:21;100832.94;;;14.53;79.40
22440;BME280;11387;51.612;7.210;2022-08-21T03:03:49;100835.47;;;14.40;80.35
22440;BME280;11387;51.612;7.210;2022-08-21T03:06:20;100838.75;;;14.42;80.22
22440;BME280;11387;51.612;7.210;2022-08-21T03:08:48;100832.78;;;14.49;79.94
22440;BME280;11387;51.612;7.210;2022-08-21T03:11:17;100829.34;;;14.43;80.08
22440;BME280;11387;51.612;7.210;2022-08-21T03:13:46;100822.44;;;14.55;79.74
22440;BME280;11387;51.612;7.210;2022-08-21T03:16:14;100820.94;;;14.48;80.03
22440;BME280;11387;51.612;7.210;2022-08-21T03:18:43;100816.06;;;14.45;80.09
22440;BME280;11387;51.612;7.210;2022-08-21T03:21:11;100812.34;;;14.41;80.01
22440;BME280;11387;51.612;7.210;2022-08-21T03:23:39;100821.38;;;14.33;80.59
22440;BME280;11387;51.612;7.210;2022-08-21T03:26:09;100808.88;;;14.27;80.78
22440;BME280;11387;51.612;7.210;2022-08-21T03:28:37;100814.56;;;14.31;81.23
22440;BME280;11387;51.612;7.210;2022-08-21T03:31:04;100812.34;;;14.41;80.47
22440;BME280;11387;51.612;7.210;2022-08-21T03:33:33;100812.47;;;14.36;80.56
22440;BME280;11387;51.612;7.210;2022-08-21T03:36:05;100820.75;;;14.36;80.70
22440;BME280;11387;51.612;7.210;2022-08-21T03:38:34;100813.44;;;14.40;80.69
22440;BME280;11387;51.612;7.210;2022-08-21T03:41:03;100821.28;;;14.47;80.39
22440;BME280;11387;51.612;7.210;2022-08-21T03:43:31;100821.69;;;14.40;80.25
22440;BME280;11387;51.612;7.210;2022-08-21T03:46:00;100810.19;;;14.38;80.55
22440;BME280;11387;51.612;7.210;2022-08-21T03:48:28;100820.59;;;14.41;80.36
22440;BME280;11387;51.612;7.210;2022-08-21T03:50:58;100815.91;;;14.42;80.77
22440;BME280;11387;51.612;7.210;2022-08-21T03:53:27;100808.09;;;14.35;81.24
22440;BME280;11387;51.612;7.210;2022-08-21T03:55:56;100806.81;;;14.33;80.72
22440;BME280;11387;51.612;7.210;2022-08-21T03:58:25;100823.94;;;14.30;80.94
22440;BME280;11387;51.612;7.210;2022-08-21T04:00:56;100813.72;;;14.22;81.05
22440;BME280;11387;51.612;7.210;2022-08-21T04:03:25;100817.28;;;14.22;81.27
22440;BME280;11387;51.612;7.210;2022-08-21T04:05:53;100817.09;;;14.19;81.07
22440;BME280;11387;51.612;7.210;2022-08-21T04:08:21;100830.19;;;14.13;81.74
22440;BME280;11387;51.612;7.210;2022-08-21T04:10:52;100821.59;;;14.14;81.91
22440;BME280;11387;51.612;7.210;2022-08-21T04:13:21;100824.03;;;14.16;81.67
22440;BME280;11387;51.612;7.210;2022-08-21T04:15:49;100827.94;;;14.15;81.91
22440;BME280;11387;51.612;7.210;2022-08-21T04:18:17;100831.81;;;14.14;81.77
22440;BME280;11387;51.612;7.210;2022-08-21T04:20:46;100828.84;;;14.02;82.18
22440;BME280;11387;51.612;7.210;2022-08-21T04:23:16;100834.31;;;13.93;82.52
22440;BME280;11387;51.612;7.210;2022-08-21T04:25:52;100834.31;;;13.93;82.78
22440;BME280;11387;51.612;7.210;2022-08-21T04:28:20;100834.13;;;13.90;82.69
22440;BME280;11387;51.612;7.210;2022-08-21T04:30:54;100838.63;;;13.86;82.91
22440;BME280;11387;51.612;7.210;2022-08-21T04:33:23;100839.56;;;13.81;82.97
22440;BME280;11387;51.612;7.210;2022-08-21T04:35:50;100836.50;;;13.82;83.02
22440;BME280;11387;51.612;7.210;2022-08-21T04:38:18;100831.63;;;13.79;83.39
22440;BME280;11387;51.612;7.210;2022-08-21T04:40:47;100832.75;;;13.78;83.26
22440;BME280;11387;51.612;7.210;2022-08-21T04:43:17;100831.63;;;13.79;83.38
22440;BME280;11387;51.612;7.210;2022-08-21T04:45:47;100840.38;;;13.81;83.21
22440;BME280;11387;51.612;7.210;2022-08-21T04:48:17;100834.06;;;13.81;83.29
22440;BME280;11387;51.612;7.210;2022-08-21T04:50:51;100837.31;;;13.83;83.30
22440;BME280;11387;51.612;7.210;2022-08-21T04:53:28;100843.00;;;13.87;83.04
22440;BME280;11387;51.612;7.210;2022-08-21T04:56:02;100841.13;;;13.96;83.07
22440;BME280;11387;51.612;7.210;2022-08-21T04:58:33;100843.56;;;13.97;82.87
22440;BME280;11387;51.612;7.210;2022-08-21T05:01:06;100841.47;;;14.03;82.33
22440;BME280;11387;51.612;7.210;2022-08-21T05:03:36;100846.34;;;14.06;82.37
22440;BME280;11387;51.612;7.210;2022-08-21T05:06:07;100842.81;;;14.14;82.10
22440;BME280;11387;51.612;7.210;2022-08-21T05:08:36;100846.56;;;14.18;81.95
22440;BME280;11387;51.612;7.210;2022-08-21T05:11:05;100848.69;;;14.21;82.25
22440;BME280;11387;51.612;7.210;2022-08-21T05:13:35;100847.78;;;14.34;81.98
22440;BME280;11387;51.612;7.210;2022-08-21T05:16:03;100840.97;;;14.40;81.72
22440;BME280;11387;51.612;7.210;2022-08-21T05:18:31;100853.00;;;14.44;81.68
22440;BME280;11387;51.612;7.210;2022-08-21T05:20:59;100849.78;;;14.51;81.37
22440;BME280;11387;51.612;7.210;2022-08-21T05:23:27;100850.47;;;14.57;81.24
22440;BME280;11387;51.612;7.210;2022-08-21T05:25:54;100856.63;;;14.71;81.12
22440;BME280;11387;51.612;7.210;2022-08-21T05:28:23;100852.91;;;14.75;80.98
22440;BME280;11387;51.612;7.210;2022-08-21T05:30:53;100848.25;;;14.85;80.91
22440;BME280;11387;51.612;7.210;2022-08-21T05:33:21;100846.66;;;14.92;80.64
22440;BME280;11387;51.612;7.210;2022-08-21T05:35:49;100853.44;;;15.03;80.17
22440;BME280;11387;51.612;7.210;2022-08-21T05:38:17;100856.38;;;15.15;79.70
22440;BME280;11387;51.612;7.210;2022-08-21T05:40:46;100859.31;;;15.28;79.55
22440;BME280;11387;51.612;7.210;2022-08-21T05:43:14;100848.44;;;15.48;78.74
22440;BME280;11387;51.612;7.210;2022-08-21T05:45:42;100858.50;;;15.53;78.70
22440;BME280;11387;51.612;7.210;2022-08-21T05:48:13;100855.56;;;15.67;77.70
22440;BME280;11387;51.612;7.210;2022-08-21T05:50:41;100858.94;;;15.90;76.95
22440;BME280;11387;51.612;7.210;2022-08-21T05:53:10;100855.34;;;15.98;76.69
22440;BME280;11387;51.612;7.210;2022-08-21T05:55:40;100867.16;;;16.15;75.95
22440;BME280;11387;51.612;7.210;2022-08-21T05:58:13;100854.44;;;16.23;75.81
22440;BME280;11387;51.612;7.210;2022-08-21T06:00:41;100856.47;;;16.43;74.69
22440;BME280;11387;51.612;7.210;2022-08-21T06:03:15;100850.44;;;16.50;74.39
22440;BME280;11387;51.612;7.210;2022-08-21T06:05:44;100848.28;;;16.56;73.98
22440;BME280;11387;51.612;7.210;2022-08-21T06:08:12;100851.50;;;16.66;73.65
22440;BME280;11387;51.612;7.210;2022-08-21T06:10:41;100845.78;;;16.71;73.54
22440;BME280;11387;51.612;7.210;2022-08-21T06:13:08;100848.28;;;16.85;72.82
22440;BME280;11387;51.612;7.210;2022-08-21T06:15:36;100847.03;;;17.03;71.97
22440;BME280;11387;51.612;7.210;2022-08-21T06:18:04;100837.41;;;17.09;71.91
22440;BME280;11387;51.612;7.210;2022-08-21T06:20:34;100840.53;;;17.20;71.12
22440;BME280;11387;51.612;7.210;2022-08-21T06:23:02;100836.56;;;17.30;71.44
22440;BME280;11387;51.612;7.210;2022-08-21T06:25:30;100837.66;;;17.37;71.03
22440;BME280;11387;51.612;7.210;2022-08-21T06:28:02;100845.16;;;17.49;70.37
22440;BME280;11387;51.612;7.210;2022-08-21T06:30:31;100852.38;;;17.62;70.06
22440;BME280;11387;51.612;7.210;2022-08-21T06:32:59;100852.69;;;17.69;69.64
22440;BME280;11387;51.612;7.210;2022-08-21T06:35:26;100854.78;;;17.84;69.08
22440;BME280;11387;51.612;7.210;2022-08-21T06:38:00;100853.28;;;17.87;69.10
22440;BME280;11387;51.612;7.210;2022-08-21T06:40:29;100851.94;;;17.93;68.95
22440;BME280;11387;51.612;7.210;2022-08-21T06:43:06;100845.59;;;18.05;68.61
22440;BME280;11387;51.612;7.210;2022-08-21T06:45:34;100849.88;;;18.14;68.13
22440;BME280;11387;51.612;7.210;2022-08-21T06:48:02;100844.63;;;18.34;67.80
22440;BME280;11387;51.612;7.210;2022-08-21T06:50:31;100845.06;;;18.48;67.25
22440;BME280;11387;51.612;7.210;2022-08-21T06:53:02;100843.81;;;18.58;66.73
22440;BME280;11387;51.612;7.210;2022-08-21T06:55:31;100845.41;;;18.83;65.98
22440;BME280;11387;51.612;7.210;2022-08-21T06:58:00;100835.56;;;18.98;65.42
22440;BME280;11387;51.612;7.210;2022-08-21T07:00:28;100840.75;;;19.11;64.65
22440;BME280;11387;51.612;7.210;2022-08-21T07:02:56;100845.47;;;19.11;64.39
22440;BME280;11387;51.612;7.210;2022-08-21T07:05:25;100840.38;;;19.25;63.83
22440;BME280;11387;51.612;7.210;2022-08-21T07:07:53;100832.56;;;19.31;63.39
22440;BME280;11387;51.612;7.210;2022-08-21T07:10:22;100834.09;;;19.28;63.34
22440;BME280;11387;51.612;7.210;2022-08-21T07:12:50;100831.16;;;19.37;63.39
22440;BME280;11387;51.612;7.210;2022-08-21T07:15:27;100832.25;;;19.60;62.93
22440;BME280;11387;51.612;7.210;2022-08-21T07:17:56;100836.03;;;19.68;61.06
22440;BME280;11387;51.612;7.210;2022-08-21T07:20:24;100833.56;;;19.78;61.03
22440;BME280;11387;51.612;7.210;2022-08-21T07:22:53;100834.72;;;19.77;60.77
22440;BME280;11387;51.612;7.210;2022-08-21T07:25:22;100828.47;;;19.80;60.56
22440;BME280;11387;51.612;7.210;2022-08-21T07:27:50;100829.28;;;19.97;59.55
22440;BME280;11387;51.612;7.210;2022-08-21T07:30:18;100829.28;;;19.97;58.39
22440;BME280;11387;51.612;7.210;2022-08-21T07:32:45;100831.72;;;20.14;56.51
22440;BME280;11387;51.612;7.210;2022-08-21T07:35:16;100832.78;;;20.25;55.26
22440;BME280;11387;51.612;7.210;2022-08-21T07:37:45;100834.91;;;20.79;54.17
22440;BME280;11387;51.612;7.210;2022-08-21T07:40:13;100835.28;;;21.32;51.01
22440;BME280;11387;51.612;7.210;2022-08-21T07:42:45;100834.44;;;22.12;48.81
22440;BME280;11387;51.612;7.210;2022-08-21T07:45:14;100833.44;;;22.73;47.45
22440;BME280;11387;51.612;7.210;2022-08-21T07:47:43;100830.63;;;23.96;44.67
22440;BME280;11387;51.612;7.210;2022-08-21T07:50:11;100824.00;;;25.25;41.98
22440;BME280;11387;51.612;7.210;2022-08-21T07:52:40;100820.59;;;26.84;38.78
22440;BME280;11387;51.612;7.210;2022-08-21T07:55:09;100823.53;;;27.64;37.11
22440;BME280;11387;51.612;7.210;2022-08-21T07:57:37;100825.19;;;29.37;34.40
22440;BME280;11387;51.612;7.210;2022-08-21T08:00:10;100814.63;;;29.48;34.36
22440;BME280;11387;51.612;7.210;2022-08-21T08:02:39;100824.28;;;30.55;32.91
22440;BME280;11387;51.612;7.210;2022-08-21T08:05:09;100822.66;;;30.07;32.73
22440;BME280;11387;51.612;7.210;2022-08-21T08:07:38;100828.75;;;28.28;35.75
22440;BME280;11387;51.612;7.210;2022-08-21T08:10:06;100819.28;;;29.28;33.89
22440;BME280;11387;51.612;7.210;2022-08-21T08:12:34;100824.00;;;29.68;33.73
22440;BME280;11387;51.612;7.210;2022-08-21T08:15:08;100826.19;;;31.44;30.84
22440;BME280;11387;51.612;7.210;2022-08-21T08:17:37;100827.91;;;31.77;30.04
22440;BME280;11387;51.612;7.210;2022-08-21T08:20:07;100820.56;;;30.81;31.03
22440;BME280;11387;51.612;7.210;2022-08-21T08:22:37;100819.59;;;32.03;29.86
22440;BME280;11387;51.612;7.210;2022-08-21T08:25:07;100833.88;;;31.24;30.06
22440;BME280;11387;51.612;7.210;2022-08-21T08:27:35;100827.47;;;31.00;30.79
22440;BME280;11387;51.612;7.210;2022-08-21T08:30:05;100824.94;;;30.39;31.64
22440;BME280;11387;51.612;7.210;2022-08-21T08:32:35;100820.88;;;30.17;31.83
22440;BME280;11387;51.612;7.210;2022-08-21T08:35:03;100819.53;;;29.98;32.13
22440;BME280;11387;51.612;7.210;2022-08-21T08:37:34;100815.94;;;31.50;29.95
22440;BME280;11387;51.612;7.210;2022-08-21T08:40:09;100810.66;;;32.21;29.05
22440;BME280;11387;51.612;7.210;2022-08-21T08:42:37;100805.94;;;32.79;28.43
22440;BME280;11387;51.612;7.210;2022-08-21T08:45:08;100805.94;;;32.79;28.09
22440;BME280;11387;51.612;7.210;2022-08-21T08:47:40;100807.38;;;32.55;28.45
22440;BME280;11387;51.612;7.210;2022-08-21T08:50:12;100807.19;;;31.80;29.57
22440;BME280;11387;51.612;7.210;2022-08-21T08:52:48;100811.59;;;30.86;30.50
22440;BME280;11387;51.612;7.210;2022-08-21T08:55:18;100811.97;;;31.84;29.25
22440;BME280;11387;51.612;7.210;2022-08-21T08:57:53;100810.72;;;31.68;29.19
22440;BME280;11387;51.612;7.210;2022-08-21T09:00:23;100822.97;;;32.46;28.33
22440;BME280;11387;51.612;7.210;2022-08-21T09:02:55;100815.34;;;32.43;27.90
22440;BME280;11387;51.612;7.210;2022-08-21T09:05:26;100814.59;;;32.72;27.82
22440;BME280;11387;51.612;7.210;2022-08-21T09:08:11;100809.34;;;32.41;27.83
22440;BME280;11387;51.612;7.210;2022-08-21T09:10:55;100805.41;;;31.51;29.05
22440;BME280;11387;51.612;7.210;2022-08-21T09:13:36;100803.53;;;34.50;25.45
22440;BME280;11387;51.612;7.210;2022-08-21T09:16:13;100801.53;;;35.68;24.20
22440;BME280;11387;51.612;7.210;2022-08-21T09:18:54;100798.31;;;36.28;23.17
22440;BME280;11387;51.612;7.210;2022-08-21T09:21:47;100797.44;;;34.13;25.46
22440;BME280;11387;51.612;7.210;2022-08-21T09:24:25;100783.47;;;34.88;25.09
22440;BME280;11387;51.612;7.210;2022-08-21T09:27:06;100788.78;;;34.29;25.55
22440;BME280;11387;51.612;7.210;2022-08-21T09:29:37;100783.25;;;35.48;24.46
22440;BME280;11387;51.612;7.210;2022-08-21T09:32:17;100780.84;;;33.06;26.64
22440;BME280;11387;51.612;7.210;2022-08-21T09:34:59;100789.34;;;32.48;27.55
22440;BME280;11387;51.612;7.210;2022-08-21T09:37:29;100788.13;;;32.33;27.92
22440;BME280;11387;51.612;7.210;2022-08-21T09:39:58;100777.22;;;33.73;26.18
22440;BME280;11387;51.612;7.210;2022-08-21T09:42:29;100782.19;;;36.80;22.72
22440;BME280;11387;51.612;7.210;2022-08-21T09:45:10;100790.69;;;37.35;21.37
22440;BME280;11387;51.612;7.210;2022-08-21T09:47:38;100790.09;;;38.54;20.57
22440;BME280;11387;51.612;7.210;2022-08-21T09:50:20;100778.25;;;37.56;21.93
22440;BME280;11387;51.612;7.210;2022-08-21T09:52:51;100780.28;;;39.23;20.45
22440;BME280;11387;51.612;7.210;2022-08-21T09:55:26;100783.47;;;40.04;18.89
22440;BME280;11387;51.612;7.210;2022-08-21T09:58:31;100780.50;;;37.52;20.88
22440;BME280;11387;51.612;7.210;2022-08-21T10:01:02;100773.44;;;35.49;23.54
22440;BME280;11387;51.612;7.210;2022-08-21T10:03:31;100766.16;;;34.95;23.99
22440;BME280;11387;51.612;7.210;2022-08-21T10:06:03;100770.28;;;35.16;23.91
22440;BME280;11387;51.612;7.210;2022-08-21T10:08:36;100766.63;;;38.02;20.53
22440;BME280;11387;51.612;7.210;2022-08-21T10:11:06;100761.38;;;38.72;19.89
22440;BME280;11387;51.612;7.210;2022-08-21T10:13:44;100780.56;;;37.16;21.29
22440;BME280;11387;51.612;7.210;2022-08-21T10:16:24;100776.47;;;35.85;22.76
22440;BME280;11387;51.612;7.210;2022-08-21T10:19:04;100776.53;;;35.63;23.27
22440;BME280;11387;51.612;7.210;2022-08-21T10:21:38;100762.56;;;36.64;21.68
22440;BME280;11387;51.612;7.210;2022-08-21T10:24:18;100768.25;;;39.33;19.61
22440;BME280;11387;51.612;7.210;2022-08-21T10:27:05;100757.50;;;41.94;16.54
22440;BME280;11387;51.612;7.210;2022-08-21T10:29:46;100774.06;;;41.68;16.42
22440;BME280;11387;51.612;7.210;2022-08-21T10:32:24;100761.44;;;41.97;16.55
22440;BME280;11387;51.612;7.210;2022-08-21T10:35:01;100758.97;;;43.14;15.34
22440;BME280;11387;51.612;7.210;2022-08-21T10:37:44;100751.44;;;43.39;15.78
22440;BME280;11387;51.612;7.210;2022-08-21T10:40:22;100747.22;;;43.51;15.29
22440;BME280;11387;51.612;7.210;2022-08-21T10:43:03;100749.78;;;43.94;14.84
22440;BME280;11387;51.612;7.210;2022-08-21T10:45:46;100753.13;;;44.67;14.20
22440;BME280;11387;51.612;7.210;2022-08-21T10:48:25;100752.28;;;45.79;13.73
22440;BME280;11387;51.612;7.210;2022-08-21T10:50:59;100747.69;;;45.89;13.34
22440;BME280;11387;51.612;7.210;2022-08-21T10:53:53;100754.97;;;47.14;12.17
22440;BME280;11387;51.612;7.210;2022-08-21T10:56:25;100742.84;;;44.77;14.11
22440;BME280;11387;51.612;7.210;2022-08-21T10:59:04;100750.72;;;46.02;13.26
22440;BME280;11387;51.612;7.210;2022-08-21T11:01:42;100743.41;;;45.71;13.16
22440;BME280;11387;51.612;7.210;2022-08-21T11:04:16;100741.97;;;43.05;15.22
22440;BME280;11387;51.612;7.210;2022-08-21T11:06:51;100742.22;;;42.90;15.66
22440;BME280;11387;51.612;7.210;2022-08-21T11:09:24;100737.09;;;44.25;14.32
22440;BME280;11387;51.612;7.210;2022-08-21T11:11:57;100743.19;;;45.69;13.24
22440;BME280;11387;51.612;7.210;2022-08-21T11:14:41;100729.66;;;43.60;14.96
22440;BME280;11387;51.612;7.210;2022-08-21T11:17:18;100738.44;;;44.13;14.85
22440;BME280;11387;51.612;7.210;2022-08-21T11:19:50;100740.13;;;44.55;13.77
22440;BME280;11387;51.612;7.210;2022-08-21T11:22:23;100743.69;;;44.66;14.17
22440;BME280;11387;51.612;7.210;2022-08-21T11:24:59;100746.81;;;44.80;13.31
22440;BME280;11387;51.612;7.210;2022-08-21T11:27:32;100748.09;;;44.84;13.62
22440;BME280;11387;51.612;7.210;2022-08-21T11:30:05;100738.81;;;44.50;14.14
22440;BME280;11387;51.612;7.210;2022-08-21T11:32:46;100749.56;;;45.32;13.64
22440;BME280;11387;51.612;7.210;2022-08-21T11:35:23;100726.28;;;44.42;14.43
22440;BME280;11387;51.612;7.210;2022-08-21T11:38:00;100740.66;;;43.17;15.43
22440;BME280;11387;51.612;7.210;2022-08-21T11:40:41;100734.72;;;41.85;16.20
22440;BME280;11387;51.612;7.210;2022-08-21T11:43:17;100733.28;;;41.64;16.36
22440;BME280;11387;51.612;7.210;2022-08-21T11:45:50;100736.63;;;41.25;16.41
22440;BME280;11387;51.612;7.210;2022-08-21T11:48:36;100745.63;;;41.13;16.84
22440;BME280;11387;51.612;7.210;2022-08-21T11:51:11;100747.50;;;40.03;17.28
22440;BME280;11387;51.612;7.210;2022-08-21T11:53:46;100745.53;;;40.76;16.98
22440;BME280;11387;51.612;7.210;2022-08-21T11:56:24;100750.44;;;38.85;18.78
22440;BME280;11387;51.612;7.210;2022-08-21T11:58:57;100738.31;;;38.37;18.76
22440;BME280;11387;51.612;7.210;2022-08-21T12:01:29;100738.88;;;37.69;19.34
22440;BME280;11387;51.612;7.210;2022-08-21T12:04:04;100734.22;;;38.05;19.36
22440;BME280;11387;51.612;7.210;2022-08-21T12:06:36;100734.97;;;38.77;18.59
22440;BME280;11387;51.612;7.210;2022-08-21T12:09:05;100737.22;;;40.17;17.85
22440;BME280;11387;51.612;7.210;2022-08-21T12:11:46;100745.44;;;40.90;17.27
22440;BME280;11387;51.612;7.210;2022-08-21T12:14:17;100740.63;;;42.13;15.95
22440;BME280;11387;51.612;7.210;2022-08-21T12:16:47;100740.88;;;42.86;15.41
22440;BME280;11387;51.612;7.210;2022-08-21T12:19:29;100730.09;;;44.04;14.23
22440;BME280;11387;51.612;7.210;2022-08-21T12:22:07;100722.53;;;43.84;14.39
22440;BME280;11387;51.612;7.210;2022-08-21T12:24:37;100730.66;;;43.80;14.23
22440;BME280;11387;51.612;7.210;2022-08-21T12:27:23;100726.78;;;43.49;14.66
22440;BME280;11387;51.612;7.210;2022-08-21T12:29:56;100723.66;;;44.85;13.87
22440;BME280;11387;51.612;7.210;2022-08-21T12:32:29;100720.47;;;44.94;13.51
22440;BME280;11387;51.612;7.210;2022-08-21T12:35:02;100719.31;;;45.87;13.11
22440;BME280;11387;51.612;7.210;2022-08-21T12:37:45;100725.97;;;46.25;13.00
22440;BME280;11387;51.612;7.210;2022-08-21T12:40:20;100719.44;;;45.76;12.70
22440;BME280;11387;51.612;7.210;2022-08-21T12:42:53;100725.22;;;43.71;14.72
22440;BME280;11387;51.612;7.210;2022-08-21T12:45:28;100722.25;;;43.93;14.26
22440;BME280;11387;51.612;7.210;2022-08-21T12:47:59;100719.13;;;43.80;14.87
22440;BME280;11387;51.612;7.210;2022-08-21T12:50:38;100718.56;;;44.97;13.20
22440;BME280;11387;51.612;7.210;2022-08-21T12:53:22;100719.22;;;44.84;13.67
22440;BME280;11387;51.612;7.210;2022-08-21T12:55:52;100714.91;;;44.61;13.99
22440;BME280;11387;51.612;7.210;2022-08-21T12:58:27;100707.16;;;45.94;13.49
22440;BME280;11387;51.612;7.210;2022-08-21T13:00:59;100707.44;;;43.33;14.80
22440;BME280;11387;51.612;7.210;2022-08-21T13:03:29;100712.91;;;42.86;15.02
22440;BME280;11387;51.612;7.210;2022-08-21T13:05:58;100712.91;;;42.92;14.89
22440;BME280;11387;51.612;7.210;2022-08-21T13:08:26;100707.13;;;44.86;14.22
22440;BME280;11387;51.612;7.210;2022-08-21T13:10:59;100707.34;;;46.02;12.50